Terminal Aerodrome Forecast
Issued by NWS

Home | Current Version | Previous Version | Text Only | Print | Product List | Glossary On
Versions: 1 2 3 4 5 6 7 8 9 10 11 12 13 14 15 16 17 18 19 20 21 22 23 24 25 26 27 28
000
FTUS46 KPDT 240536
TAFYKM
TAF
KYKM 240536Z 2406/2506 VRB06KT 5SM BR BKN015
      TEMPO 2406/2410 1/4SM FZFG OVC001
     FM241000 27007KT 4SM BR BKN010
     FM241800 VRB03KT 6SM BR FEW005 SCT015
      TEMPO 2502/2506 2SM BR BKN002 OVC008=

USA.gov is the U.S. government's official web portal to all federal, state and local government web resources and services.